Time;durP1;ratioP1;P1;durP2;ratioP2;P2;SDS_P1;SDS_P2;PMS_P1;PMS_P2;Temp;Humidity;BMP_temperature;BMP_pressure;BME280_temperature;BME280_humidity;BME280_pressure;Samples;Min_cycle;Max_cycle;Signal;HPM_P1;HPM_P2
2023/12/25 00:01:35;;;;;;;13.50;6.90;;;;;;;2.54;100.00;100036.85;106814;1284;58185;-86
2023/12/25 00:04:00;;;;;;;15.00;7.00;;;;;;;2.52;100.00;100033.16;106799;1284;58295;-86
2023/12/25 00:06:26;;;;;;;12.10;6.50;;;;;;;2.49;100.00;100030.94;106777;1284;58373;-86
2023/12/25 00:08:52;;;;;;;12.60;6.30;;;;;;;2.48;100.00;100027.71;106836;1284;58642;-87
2023/12/25 00:11:17;;;;;;;14.70;6.60;;;;;;;2.40;100.00;100024.84;106782;1284;62867;-87
2023/12/25 00:13:43;;;;;;;11.30;6.30;;;;;;;2.38;100.00;100022.55;106799;1284;58745;-87
2023/12/25 00:16:09;;;;;;;13.60;6.60;;;;;;;2.36;100.00;100027.52;106440;1285;58323;-87
2023/12/25 00:18:34;;;;;;;14.60;7.20;;;;;;;2.33;100.00;100025.70;106492;1284;58317;-87
2023/12/25 00:21:00;;;;;;;13.60;6.30;;;;;;;2.33;100.00;100028.07;106302;1285;58342;-87
2023/12/25 00:23:25;;;;;;;12.70;6.40;;;;;;;2.34;100.00;100033.41;106835;1284;58307;-87
2023/12/25 00:25:51;;;;;;;12.00;6.10;;;;;;;2.30;100.00;100036.19;106788;1284;58274;-87
2023/12/25 00:28:16;;;;;;;14.20;6.80;;;;;;;2.25;100.00;100033.70;106628;1285;58326;-87
2023/12/25 00:30:42;;;;;;;16.00;6.70;;;;;;;2.17;100.00;100040.89;106776;1284;58312;-87
2023/12/25 00:33:07;;;;;;;11.70;5.80;;;;;;;2.09;100.00;100038.34;106782;1284;58211;-87
2023/12/25 00:35:33;;;;;;;14.90;6.30;;;;;;;2.12;100.00;100043.14;106876;1284;58394;-87
2023/12/25 00:37:58;;;;;;;17.20;6.90;;;;;;;2.09;100.00;100038.34;106809;1284;58329;-87
2023/12/25 00:40:24;;;;;;;15.20;7.00;;;;;;;2.05;100.00;100028.06;106173;1290;58741;-87
2023/12/25 00:42:50;;;;;;;14.40;6.40;;;;;;;2.02;100.00;100030.80;106198;1291;58660;-88
2023/12/25 00:45:15;;;;;;;16.20;6.80;;;;;;;2.03;100.00;100037.38;106135;1289;58333;-87
2023/12/25 00:47:41;;;;;;;13.50;6.90;;;;;;;2.04;100.00;100040.68;106294;1289;58380;-87
2023/12/25 00:50:06;;;;;;;15.50;6.90;;;;;;;2.05;100.00;100040.41;106274;1289;59265;-88
2023/12/25 00:52:32;;;;;;;15.00;7.00;;;;;;;2.04;100.00;100047.55;106180;1291;58667;-87
2023/12/25 00:54:58;;;;;;;19.50;8.10;;;;;;;2.05;100.00;100047.98;106264;1290;58337;-87
2023/12/25 00:57:23;;;;;;;17.10;8.60;;;;;;;2.01;100.00;100047.28;106245;1289;58712;-87
2023/12/25 00:59:49;;;;;;;23.30;9.80;;;;;;;2.02;100.00;100046.05;106290;1290;58386;-87
2023/12/25 01:02:14;;;;;;;20.80;9.00;;;;;;;2.04;100.00;100050.15;106125;1290;61318;-88
2023/12/25 01:04:40;;;;;;;21.60;9.50;;;;;;;2.09;100.00;100044.12;106042;1289;58528;-87
2023/12/25 01:07:05;;;;;;;22.00;10.80;;;;;;;2.03;100.00;100039.49;106266;1289;58721;-88
2023/12/25 01:09:31;;;;;;;21.60;10.50;;;;;;;2.04;100.00;100036.10;106077;1293;58360;-88
2023/12/25 01:11:56;;;;;;;21.60;10.40;;;;;;;2.09;100.00;100023.51;106309;1288;58300;-88
2023/12/25 01:14:22;;;;;;;27.00;11.90;;;;;;;2.08;100.00;100017.95;106486;1288;59753;-88
2023/12/25 01:16:48;;;;;;;26.40;11.90;;;;;;;2.04;100.00;100024.57;106515;1288;59121;-88
2023/12/25 01:19:13;;;;;;;26.80;13.30;;;;;;;2.00;100.00;100028.32;106485;1288;58412;-87
2023/12/25 01:21:39;;;;;;;27.30;13.30;;;;;;;1.99;100.00;100030.70;106476;1288;58368;-88
2023/12/25 01:24:04;;;;;;;33.60;14.90;;;;;;;2.02;100.00;100030.06;106507;1287;58265;-87
2023/12/25 01:26:33;;;;;;;34.10;14.90;;;;;;;2.01;100.00;100033.58;106450;1289;74686;-88
2023/12/25 01:28:58;;;;;;;40.00;15.20;;;;;;;2.03;100.00;100035.66;106372;1288;73560;-87
2023/12/25 01:31:24;;;;;;;37.60;15.40;;;;;;;2.05;100.00;100036.95;106380;1288;58356;-88
2023/12/25 01:33:49;;;;;;;38.60;16.10;;;;;;;2.04;100.00;100041.98;106471;1288;58507;-88
2023/12/25 01:36:15;;;;;;;38.90;15.50;;;;;;;2.02;100.00;100039.88;106473;1288;58706;-88
2023/12/25 01:38:40;;;;;;;36.70;16.50;;;;;;;2.00;100.00;100036.66;106339;1287;59043;-87
2023/12/25 01:41:06;;;;;;;41.30;17.00;;;;;;;1.99;100.00;100032.77;106492;1288;73283;-88
2023/12/25 01:43:31;;;;;;;39.70;16.80;;;;;;;1.97;100.00;100027.89;106469;1288;58750;-88
2023/12/25 01:45:57;;;;;;;37.00;16.20;;;;;;;1.91;100.00;100026.65;106515;1288;58300;-89
2023/12/25 01:48:24;;;;;;;36.90;15.60;;;;;;;1.72;100.00;100025.19;106764;1285;58332;-88
2023/12/25 01:50:53;;;;;;;38.50;15.40;;;;;;;1.62;100.00;100024.40;106278;1288;58610;-87
2023/12/25 01:53:20;;;;;;;40.10;17.00;;;;;;;1.64;100.00;100018.19;106731;1285;58295;-88
2023/12/25 01:55:46;;;;;;;37.80;16.50;;;;;;;1.53;100.00;100016.34;106732;1285;62501;-88
2023/12/25 01:58:11;;;;;;;39.10;16.20;;;;;;;1.57;100.00;100017.49;106577;1285;58363;-87
2023/12/25 02:00:37;;;;;;;40.50;16.20;;;;;;;1.57;100.00;100021.14;106574;1285;58463;-88
2023/12/25 02:03:03;;;;;;;41.00;16.60;;;;;;;1.52;100.00;100020.92;106560;1285;58425;-87
2023/12/25 02:05:28;;;;;;;40.10;17.00;;;;;;;1.53;100.00;100025.69;106786;1284;58236;-88
2023/12/25 02:07:55;;;;;;;40.80;17.60;;;;;;;1.54;100.00;100033.48;106822;1285;58210;-88
2023/12/25 02:10:28;;;;;;;42.00;17.10;;;;;;;1.56;100.00;100042.42;106568;1284;74526;-88
2023/12/25 02:12:54;;;;;;;37.30;16.10;;;;;;;1.53;100.00;100049.21;106769;1284;73913;-88
2023/12/25 02:15:20;;;;;;;45.30;17.20;;;;;;;1.51;100.00;100053.94;106460;1285;58903;-88
2023/12/25 02:17:46;;;;;;;34.00;15.80;;;;;;;1.47;100.00;100048.36;106476;1285;58581;-88
2023/12/25 02:20:13;;;;;;;43.80;16.90;;;;;;;1.40;100.00;100045.25;106792;1284;58364;-88
2023/12/25 02:22:40;;;;;;;40.80;16.70;;;;;;;1.33;100.00;100049.33;106594;1285;58316;-87
2023/12/25 02:25:30;;;;;;;41.40;16.40;;;;;;;1.36;100.00;100051.45;106484;1285;58768;-87
2023/12/25 02:27:56;;;;;;;34.60;15.20;;;;;;;1.38;100.00;100052.25;106747;1284;73409;-87
2023/12/25 02:30:21;;;;;;;35.50;14.70;;;;;;;1.39;100.00;100052.85;106467;1285;58293;-88
2023/12/25 02:32:46;;;;;;;33.70;14.50;;;;;;;1.42;100.00;100046.13;106800;1284;58330;-87
2023/12/25 02:35:12;;;;;;;29.90;12.90;;;;;;;1.42;100.00;100048.34;106768;1284;58326;-87
2023/12/25 02:37:38;;;;;;;31.30;12.60;;;;;;;1.40;100.00;100042.77;106814;1284;58303;-88
2023/12/25 02:40:05;;;;;;;25.40;12.10;;;;;;;1.35;100.00;100033.31;106566;1285;62699;-88
2023/12/25 02:42:30;;;;;;;25.10;11.40;;;;;;;1.34;100.00;100033.77;106783;1284;61111;-88
2023/12/25 02:44:55;;;;;;;24.50;11.00;;;;;;;1.33;100.00;100032.06;106824;1284;58363;-88
2023/12/25 02:47:21;;;;;;;23.90;10.60;;;;;;;1.27;100.00;100036.63;106821;1284;58643;-88
2023/12/25 02:49:46;;;;;;;27.10;11.70;;;;;;;1.20;100.00;100037.92;106785;1284;58645;-88
2023/12/25 02:52:12;;;;;;;22.40;10.20;;;;;;;1.12;100.00;100035.77;106814;1285;58174;-87
2023/12/25 02:54:38;;;;;;;20.20;9.30;;;;;;;1.06;100.00;100029.58;106817;1284;74445;-88
2023/12/25 02:57:03;;;;;;;18.90;9.40;;;;;;;1.01;100.00;100027.65;106782;1284;58305;-87
2023/12/25 02:59:29;;;;;;;26.10;12.10;;;;;;;0.96;100.00;100026.38;106593;1285;58270;-87
2023/12/25 03:01:57;;;;;;;19.90;9.20;;;;;;;0.91;100.00;100025.98;106546;1285;59178;-88
2023/12/25 03:04:23;;;;;;;18.90;9.10;;;;;;;0.89;100.00;100033.70;106506;1285;58271;-88
2023/12/25 03:06:48;;;;;;;21.10;8.80;;;;;;;0.85;100.00;100031.84;106809;1284;58843;-87
2023/12/25 03:09:16;;;;;;;21.90;10.20;;;;;;;0.79;100.00;100037.73;106759;1284;58803;-87
2023/12/25 03:11:42;;;;;;;19.00;9.20;;;;;;;0.76;100.00;100043.70;106808;1284;58584;-87
2023/12/25 03:14:07;;;;;;;19.60;9.20;;;;;;;0.74;100.00;100042.44;106545;1284;58298;-87
2023/12/25 03:16:33;;;;;;;20.90;9.50;;;;;;;0.75;100.00;100038.98;106443;1285;58352;-87
2023/12/25 03:18:58;;;;;;;16.80;8.60;;;;;;;0.72;100.00;100038.29;106810;1285;58352;-87
2023/12/25 03:21:24;;;;;;;23.00;10.80;;;;;;;0.69;100.00;100039.97;106801;1284;58352;-87
2023/12/25 03:23:49;;;;;;;25.00;11.60;;;;;;;0.66;100.00;100047.16;106747;1284;58460;-88
2023/12/25 03:26:18;;;;;;;25.20;12.60;;;;;;;0.63;100.00;100049.52;106765;1285;58436;-87
2023/12/25 03:28:43;;;;;;;27.80;13.00;;;;;;;0.63;100.00;100050.30;106756;1285;58257;-87
2023/12/25 03:31:09;;;;;;;29.20;13.70;;;;;;;0.50;100.00;100053.47;106804;1285;58429;-87
2023/12/25 03:33:35;;;;;;;31.60;16.20;;;;;;;0.54;100.00;100051.30;106758;1285;59142;-87
2023/12/25 03:36:00;;;;;;;32.50;16.20;;;;;;;0.51;100.00;100053.16;106576;1285;58228;-87
2023/12/25 03:38:28;;;;;;;34.90;16.90;;;;;;;0.48;100.00;100056.58;106823;1285;58830;-88
2023/12/25 03:40:54;;;;;;;36.30;17.90;;;;;;;0.45;100.00;100052.14;106370;1289;74396;-87
2023/12/25 03:43:20;;;;;;;37.30;17.90;;;;;;;0.40;100.00;100045.75;106358;1289;58352;-87
2023/12/25 03:45:48;;;;;;;38.80;17.70;;;;;;;0.40;100.00;100035.52;106222;1291;58544;-86
2023/12/25 03:48:14;;;;;;;40.30;19.40;;;;;;;0.39;100.00;100023.02;106346;1289;60186;-87
2023/12/25 03:50:39;;;;;;;37.50;18.50;;;;;;;0.37;100.00;100020.35;106200;1289;58346;-86
2023/12/25 03:53:04;;;;;;;39.50;18.60;;;;;;;0.36;100.00;100024.96;106347;1288;58587;-86
2023/12/25 03:55:30;;;;;;;42.20;19.00;;;;;;;0.36;100.00;100034.30;106351;1289;58327;-88
2023/12/25 03:57:56;;;;;;;33.60;17.70;;;;;;;0.35;100.00;100039.55;106230;1290;58271;-87
2023/12/25 04:00:21;;;;;;;34.60;17.20;;;;;;;0.37;100.00;100038.98;106353;1290;73563;-86
2023/12/25 04:02:47;;;;;;;32.40;15.30;;;;;;;0.37;100.00;100038.12;105987;1290;58859;-87
2023/12/25 04:05:12;;;;;;;30.00;14.60;;;;;;;0.34;100.00;100039.11;106223;1289;58331;-87
2023/12/25 04:07:38;;;;;;;27.60;12.80;;;;;;;0.32;100.00;100045.52;106051;1289;58298;-87
2023/12/25 04:10:04;;;;;;;28.40;12.10;;;;;;;0.29;100.00;100046.17;106268;1289;58438;-87
2023/12/25 04:12:29;;;;;;;26.30;12.30;;;;;;;0.26;100.00;100046.45;106590;1285;73602;-87
2023/12/25 04:14:55;;;;;;;28.40;12.40;;;;;;;0.23;100.00;100048.30;106370;1289;58817;-86
2023/12/25 04:17:20;;;;;;;28.70;13.10;;;;;;;0.22;100.00;100047.11;106354;1289;58358;-87
2023/12/25 04:19:46;;;;;;;30.60;14.00;;;;;;;0.26;100.00;100049.33;106353;1288;58392;-87
2023/12/25 04:22:13;;;;;;;31.60;14.60;;;;;;;0.28;100.00;100044.42;106396;1289;58443;-86
2023/12/25 04:24:39;;;;;;;38.60;15.40;;;;;;;0.31;100.00;100045.44;106349;1289;73524;-87
2023/12/25 04:27:04;;;;;;;40.00;16.20;;;;;;;0.31;100.00;100037.92;106201;1294;58580;-87
2023/12/25 04:29:30;;;;;;;36.60;16.80;;;;;;;0.30;100.00;100036.14;106257;1290;58332;-87
2023/12/25 04:31:55;;;;;;;39.00;17.10;;;;;;;0.29;100.00;100030.27;106366;1289;58404;-86
2023/12/25 04:34:21;;;;;;;41.00;16.70;;;;;;;0.31;100.00;100030.06;106382;1290;58786;-87
2023/12/25 04:36:46;;;;;;;40.30;17.50;;;;;;;0.28;100.00;100031.87;106240;1291;58569;-87
2023/12/25 04:39:12;;;;;;;40.20;17.30;;;;;;;0.28;100.00;100032.23;106401;1290;58317;-87
2023/12/25 04:41:37;;;;;;;37.00;15.90;;;;;;;0.29;100.00;100028.36;106387;1291;58531;-87
2023/12/25 04:44:03;;;;;;;36.40;16.60;;;;;;;0.29;100.00;100022.04;106251;1289;58467;-87
2023/12/25 04:46:29;;;;;;;31.90;14.60;;;;;;;0.28;100.00;100020.01;106592;1285;58358;-87
2023/12/25 04:48:54;;;;;;;34.30;15.10;;;;;;;0.25;100.00;100023.15;106798;1285;58752;-87
2023/12/25 04:51:20;;;;;;;33.60;14.20;;;;;;;0.22;100.00;100019.76;106790;1285;58704;-87
2023/12/25 04:53:45;;;;;;;31.00;13.60;;;;;;;0.21;100.00;100012.83;106755;1285;58366;-87
2023/12/25 04:56:11;;;;;;;30.60;14.20;;;;;;;0.19;100.00;100014.32;106738;1285;58269;-87
2023/12/25 04:58:38;;;;;;;31.90;14.90;;;;;;;0.15;100.00;100008.40;106288;1285;58506;-87
2023/12/25 05:01:04;;;;;;;31.20;14.10;;;;;;;0.14;100.00;100004.73;106753;1285;58280;-87
2023/12/25 05:03:30;;;;;;;36.90;15.60;;;;;;;0.17;100.00;100001.14;106788;1285;58241;-87
2023/12/25 05:05:56;;;;;;;34.40;15.00;;;;;;;0.20;100.00;99991.80;106772;1285;58284;-86
2023/12/25 05:08:22;;;;;;;35.90;17.00;;;;;;;0.16;100.00;99981.66;106761;1285;59261;-86
2023/12/25 05:10:48;;;;;;;49.40;22.20;;;;;;;0.20;100.00;99979.66;106288;1285;58982;-87
2023/12/25 05:13:13;;;;;;;44.70;19.30;;;;;;;0.20;100.00;99978.19;106765;1285;58218;-86
2023/12/25 05:15:39;;;;;;;46.60;20.10;;;;;;;0.22;100.00;99981.41;106526;1288;58621;-87
2023/12/25 05:18:04;;;;;;;49.80;21.50;;;;;;;0.26;100.00;99977.98;106491;1288;58362;-86
2023/12/25 05:20:30;;;;;;;39.70;17.10;;;;;;;0.22;100.00;99972.56;106540;1288;59153;-86
2023/12/25 05:22:55;;;;;;;36.40;15.40;;;;;;;0.23;100.00;99976.02;106519;1288;59460;-86
2023/12/25 05:25:22;;;;;;;27.20;13.30;;;;;;;0.27;100.00;99979.89;106500;1291;58508;-87
2023/12/25 05:27:47;;;;;;;30.40;13.20;;;;;;;0.24;100.00;99965.95;106471;1287;58336;-86
2023/12/25 05:30:13;;;;;;;34.20;14.50;;;;;;;0.27;100.00;99961.54;106372;1288;58606;-86
2023/12/25 05:32:38;;;;;;;34.20;14.60;;;;;;;0.28;100.00;99956.56;106424;1288;58271;-86
2023/12/25 05:35:04;;;;;;;42.00;16.60;;;;;;;0.31;100.00;99956.52;106513;1288;58290;-87
2023/12/25 05:37:31;;;;;;;41.40;17.00;;;;;;;0.31;100.00;99958.80;106493;1287;73105;-86
2023/12/25 05:39:56;;;;;;;41.60;16.10;;;;;;;0.30;100.00;99968.98;106486;1288;58754;-86
2023/12/25 05:42:24;;;;;;;42.00;16.80;;;;;;;0.29;100.00;99963.58;106516;1287;58381;-86
2023/12/25 05:44:49;;;;;;;33.30;14.40;;;;;;;0.31;100.00;99952.20;106513;1288;58395;-86
2023/12/25 05:47:15;;;;;;;36.60;15.10;;;;;;;0.32;100.00;99945.17;106247;1286;58386;-86
2023/12/25 05:49:40;;;;;;;28.10;13.90;;;;;;;0.31;100.00;99947.11;106653;1285;58290;-86
2023/12/25 05:52:06;;;;;;;30.90;13.50;;;;;;;0.35;100.00;99949.66;106736;1285;58308;-86
2023/12/25 05:54:31;;;;;;;29.60;13.70;;;;;;;0.38;100.00;99955.36;106626;1285;58482;-86
2023/12/25 05:56:57;;;;;;;24.50;12.20;;;;;;;0.41;100.00;99958.48;106771;1285;59383;-86
2023/12/25 05:59:23;;;;;;;24.30;10.90;;;;;;;0.36;100.00;99962.90;106556;1285;58389;-87
2023/12/25 06:01:48;;;;;;;23.40;11.60;;;;;;;0.37;100.00;99960.91;106679;1284;109111;-86
2023/12/25 06:04:14;;;;;;;23.80;11.40;;;;;;;0.31;100.00;99969.08;106470;1285;58190;-86
2023/12/25 06:06:40;;;;;;;24.30;11.00;;;;;;;0.31;100.00;99966.58;106807;1285;58286;-86
2023/12/25 06:09:06;;;;;;;24.00;11.10;;;;;;;0.43;100.00;99960.07;106741;1285;72535;-86
2023/12/25 06:11:32;;;;;;;20.50;9.80;;;;;;;0.49;100.00;99958.71;106785;1285;58210;-87
2023/12/25 06:13:57;;;;;;;22.30;10.20;;;;;;;0.51;100.00;99959.67;106763;1286;58302;-86
2023/12/25 06:16:23;;;;;;;20.00;9.60;;;;;;;0.59;100.00;99959.98;106752;1285;58272;-86
2023/12/25 06:18:49;;;;;;;22.40;9.50;;;;;;;0.60;100.00;99966.29;106397;1285;59220;-86
2023/12/25 06:21:14;;;;;;;22.80;8.90;;;;;;;0.63;100.00;99966.80;106565;1285;58291;-86
2023/12/25 06:23:47;;;;;;;19.10;8.60;;;;;;;0.68;100.00;99961.09;106803;1285;60372;-87
2023/12/25 06:26:24;;;;;;;18.20;9.20;;;;;;;0.69;100.00;99957.35;106337;1288;73949;-86
2023/12/25 06:28:49;;;;;;;18.40;8.70;;;;;;;0.79;100.00;99962.34;106243;1285;74779;-85
2023/12/25 06:31:15;;;;;;;23.30;9.90;;;;;;;0.86;100.00;99960.88;106673;1285;59173;-88
2023/12/25 06:33:45;;;;;;;22.90;9.80;;;;;;;0.92;100.00;99958.60;106201;1286;58441;-86
2023/12/25 06:36:18;;;;;;;21.80;10.60;;;;;;;0.96;100.00;99956.39;106296;1289;59213;-89
2023/12/25 06:39:26;;;;;;;25.70;10.90;;;;;;;1.04;100.00;99954.29;106151;1289;74076;-90
2023/12/25 06:42:21;;;;;;;20.40;10.00;;;;;;;1.07;100.00;99956.20;106272;1289;74379;-89
2023/12/25 06:45:10;;;;;;;19.30;10.40;;;;;;;1.12;100.00;99951.30;105900;1292;71843;-89
2023/12/25 06:47:56;;;;;;;21.10;9.70;;;;;;;1.20;100.00;99945.47;105874;1291;61692;-90
2023/12/25 06:50:24;;;;;;;25.10;10.40;;;;;;;1.21;100.00;99938.14;105779;1297;60762;-89
2023/12/25 06:52:52;;;;;;;25.30;11.20;;;;;;;1.24;100.00;99944.61;105527;1297;71510;-89
2023/12/25 06:55:18;;;;;;;24.00;10.60;;;;;;;1.25;100.00;99949.21;105698;1297;58643;-90
2023/12/25 06:57:47;;;;;;;25.20;10.50;;;;;;;1.32;100.00;99948.85;105664;1297;58333;-90
2023/12/25 07:00:14;;;;;;;22.70;10.50;;;;;;;1.38;100.00;99950.85;105483;1297;62043;-91
2023/12/25 07:02:40;;;;;;;27.00;11.90;;;;;;;1.35;100.00;99953.48;105540;1297;60310;-89
2023/12/25 07:05:06;;;;;;;25.30;11.70;;;;;;;1.38;100.00;99956.09;105686;1297;58612;-90
2023/12/25 07:07:32;;;;;;;62.30;29.20;;;;;;;1.45;100.00;99957.57;105724;1293;58589;-90
2023/12/25 07:10:02;;;;;;;117.50;53.90;;;;;;;1.55;100.00;99955.02;105782;1295;58483;-90
2023/12/25 07:12:30;;;;;;;32.40;16.40;;;;;;;1.61;100.00;99958.51;105782;1295;62156;-92
2023/12/25 07:14:55;;;;;;;23.00;11.20;;;;;;;1.64;100.00;99961.92;106017;1295;59108;-91
2023/12/25 07:17:21;;;;;;;27.90;12.50;;;;;;;1.66;100.00;99962.06;106014;1292;58814;-91
2023/12/25 07:19:47;;;;;;;27.90;12.90;;;;;;;1.65;100.00;99962.45;106228;1292;58518;-91
2023/12/25 07:22:24;;;;;;;22.10;10.60;;;;;;;1.68;100.00;99961.11;106082;1300;58659;-90
2023/12/25 07:25:11;;;;;;;20.70;9.60;;;;;;;1.62;100.00;99952.02;105636;1301;61984;-92
2023/12/25 07:30:25;;;;;;;24.20;11.20;;;;;;;1.63;100.00;99932.19;102942;1294;615459;-88
2023/12/25 07:32:51;;;;;;;25.20;12.00;;;;;;;1.65;100.00;99931.68;103031;1299;63391;-88
2023/12/25 07:43:31;;;;;;;35.40;17.00;;;;;;;1.85;100.00;99903.09;93285;1324;10257888;-85
